createdAt,value
2023-02-03T00:09:01.746Z,66.95
2023-02-03T00:11:32.203Z,68.29
2023-02-03T00:13:58.865Z,67.54
2023-02-03T00:16:25.517Z,67.45
2023-02-03T00:18:52.095Z,68.53
2023-02-03T00:21:18.785Z,69.23
2023-02-03T00:24:05.592Z,68.54
2023-02-03T00:26:57.055Z,68.78
2023-02-03T00:29:26.020Z,68.69
2023-02-03T03:04:05.364Z,60.88
2023-02-03T04:52:06.967Z,54.34
2023-02-03T04:54:34.288Z,53.34
2023-02-03T04:57:01.198Z,54.12
2023-02-03T04:59:27.841Z,53.42
2023-02-03T05:01:54.413Z,52.41
2023-02-03T05:04:21.360Z,51.69
2023-02-03T05:09:24.471Z,51.38
2023-02-03T05:11:51.133Z,50.39
2023-02-03T05:14:17.808Z,50.61
2023-02-03T05:16:45.434Z,49.93
2023-02-03T05:19:13.413Z,50.84
2023-02-03T05:21:40.362Z,50.01
2023-02-03T07:42:15.767Z,53.17
2023-02-03T09:43:46.076Z,66.17
2023-02-03T09:46:24.883Z,69.05
2023-02-03T09:49:22.509Z,68.46
2023-02-03T09:51:57.955Z,68.49
2023-02-03T09:58:23.039Z,70.03
2023-02-03T10:01:05.670Z,69.71
2023-02-03T10:03:48.020Z,68.35
2023-02-03T10:06:24.034Z,68.31
2023-02-03T10:09:09.535Z,68.44
2023-02-03T10:11:49.613Z,67.69
2023-02-03T10:14:35.970Z,67.57
2023-02-03T10:17:14.543Z,68.01
2023-02-03T10:19:56.004Z,67.99
2023-02-03T10:22:29.280Z,68.10
2023-02-03T10:25:05.730Z,68.43
2023-02-03T10:27:35.050Z,68.07
2023-02-03T10:30:12.342Z,68.27
2023-02-03T10:32:38.918Z,68.42
2023-02-03T10:35:12.695Z,68.47
2023-02-03T10:40:16.965Z,69.24
2023-02-03T10:43:07.721Z,69.78
2023-02-03T10:45:38.485Z,70.29
2023-02-03T10:48:13.281Z,70.33
2023-02-03T10:50:44.593Z,69.80
2023-02-03T10:53:54.986Z,70.37
2023-02-03T10:59:31.137Z,70.79
2023-02-03T11:01:58.127Z,71.59
2023-02-03T11:04:33.035Z,70.87
2023-02-03T11:07:37.373Z,70.96
2023-02-03T11:10:04.153Z,71.87
2023-02-03T11:12:30.907Z,72.03
2023-02-03T11:15:05.493Z,71.93
2023-02-03T11:17:36.776Z,72.18
2023-02-03T11:20:14.336Z,71.57
2023-02-03T11:22:43.306Z,72.12
2023-02-03T11:25:25.922Z,73.15
2023-02-03T11:27:55.995Z,74.44
2023-02-03T11:30:26.290Z,74.32
2023-02-03T11:32:53.668Z,74.13
2023-02-03T11:35:28.137Z,72.97
2023-02-03T11:37:57.593Z,73.12
2023-02-03T11:40:34.609Z,72.70
2023-02-03T11:43:15.864Z,73.87
2023-02-03T11:45:44.714Z,74.67
2023-02-03T11:48:11.224Z,75.12
2023-02-03T11:50:43.766Z,75.25
2023-02-03T11:53:56.312Z,75.98
2023-02-03T11:56:29.538Z,76.08
2023-02-03T11:59:24.721Z,76.81
2023-02-03T12:02:23.138Z,76.58
2023-02-03T12:04:49.717Z,75.78
2023-02-03T12:44:33.337Z,76.45
2023-02-03T12:47:29.481Z,76.12
2023-02-03T12:50:18.257Z,76.82
2023-02-03T12:52:55.654Z,76.29
2023-02-03T12:55:33.723Z,76.87
2023-02-03T12:58:46.388Z,76.40
2023-02-03T13:01:21.064Z,76.51
2023-02-03T13:04:12.985Z,75.57
2023-02-03T13:07:09.899Z,75.48
2023-02-03T13:10:19.263Z,74.96
2023-02-03T13:12:51.615Z,74.79
2023-02-03T13:15:23.922Z,75.91
2023-02-03T13:21:57.974Z,76.37
2023-02-03T13:39:17.445Z,75.26
2023-02-03T13:53:22.422Z,74.36
2023-02-03T13:55:58.087Z,73.83
2023-02-03T13:58:30.515Z,74.56
2023-02-03T14:00:56.994Z,75.19
2023-02-03T14:03:26.690Z,74.31
2023-02-03T14:05:55.503Z,74.46
2023-02-03T14:08:28.095Z,74.77
2023-02-03T14:11:32.434Z,74.59
2023-02-03T14:14:35.821Z,76.47
2023-02-03T14:17:02.559Z,75.61
2023-02-03T14:19:29.091Z,76.33
2023-02-03T14:21:59.418Z,76.39
2023-02-03T14:24:48.540Z,76.31
2023-02-03T14:27:28.080Z,76.29
2023-02-03T14:30:12.635Z,74.83
2023-02-03T14:39:17.723Z,75.01
2023-02-03T14:41:58.544Z,76.41
2023-02-03T14:44:36.964Z,75.48
2023-02-03T14:47:08.969Z,75.16
2023-02-03T14:49:46.687Z,74.98
2023-02-03T14:53:11.025Z,75.25
2023-02-03T14:56:05.133Z,76.01
2023-02-03T14:58:43.021Z,74.98
2023-02-03T15:01:25.683Z,75.13
2023-02-03T15:04:10.962Z,75.90
2023-02-03T15:06:49.041Z,74.88
2023-02-03T15:09:32.953Z,75.68
2023-02-03T15:11:59.816Z,75.08
2023-02-03T15:14:33.886Z,75.56
2023-02-03T15:17:03.402Z,77.05
2023-02-03T15:19:35.163Z,76.55
2023-02-03T15:22:01.867Z,76.98
2023-02-03T15:24:35.740Z,75.95
2023-02-03T15:27:02.536Z,76.33
2023-02-03T15:29:31.648Z,75.70
2023-02-03T15:32:13.676Z,76.28
2023-02-03T15:34:46.757Z,75.71
2023-02-03T15:37:19.135Z,75.56
2023-02-03T15:40:03.828Z,75.74
2023-02-03T15:42:59.630Z,75.25
2023-02-03T15:45:39.964Z,75.97
2023-02-03T15:48:14.741Z,75.46
2023-02-03T15:50:47.570Z,75.72
2023-02-03T15:53:21.546Z,75.33
2023-02-03T15:55:53.078Z,75.35
2023-02-03T15:58:26.617Z,74.67
2023-02-03T16:01:03.777Z,75.06
2023-02-03T16:03:41.160Z,74.67
2023-02-03T16:06:22.445Z,75.26
2023-02-03T16:08:51.977Z,74.73
2023-02-03T16:11:33.000Z,74.35
2023-02-03T16:14:04.872Z,74.18
2023-02-03T16:16:47.215Z,73.93
2023-02-03T16:19:23.219Z,74.32
2023-02-03T16:21:49.759Z,74.09
2023-02-03T16:24:40.373Z,74.02
2023-02-03T16:27:31.835Z,73.91
2023-02-03T16:30:26.258Z,74.28
2023-02-03T16:33:34.122Z,73.90
2023-02-03T16:36:31.372Z,74.34
2023-02-03T16:39:20.720Z,76.66
2023-02-03T16:42:06.420Z,76.97
2023-02-03T16:44:51.699Z,78.36
2023-02-03T16:47:45.608Z,78.31
2023-02-03T16:50:38.987Z,79.00
2023-02-03T16:53:11.292Z,78.12
2023-02-03T16:55:38.190Z,77.28
2023-02-03T16:58:04.731Z,77.59
2023-02-03T17:00:31.491Z,77.05
2023-02-03T17:02:58.784Z,76.19
2023-02-03T17:05:25.383Z,76.08
2023-02-03T17:07:51.973Z,75.96
2023-02-03T17:10:18.630Z,76.68
2023-02-03T17:12:45.207Z,76.22
2023-02-03T17:15:11.833Z,76.33
2023-02-03T17:17:38.439Z,76.60
2023-02-03T17:20:05.433Z,78.18
2023-02-03T17:22:32.249Z,77.77
2023-02-03T17:24:58.818Z,76.91
2023-02-03T17:27:25.486Z,76.38
2023-02-03T17:29:52.058Z,76.05
2023-02-03T17:32:18.592Z,76.26
2023-02-03T17:34:45.286Z,77.13
2023-02-03T17:37:12.215Z,76.84
2023-02-03T17:53:25.627Z,77.15
2023-02-03T17:55:52.299Z,76.45
2023-02-03T17:58:18.875Z,76.06
2023-02-03T18:00:45.406Z,75.86
2023-02-03T18:03:11.946Z,75.56
2023-02-03T18:05:38.922Z,75.35
2023-02-03T18:08:12.430Z,75.08
2023-02-03T18:10:43.552Z,74.32
2023-02-03T18:13:10.403Z,74.19
2023-02-03T18:15:38.534Z,74.27
2023-02-03T18:18:05.246Z,74.62
2023-02-03T18:20:31.862Z,74.57
2023-02-03T18:22:58.411Z,74.79
2023-02-03T18:25:24.959Z,74.91
2023-02-03T18:27:52.277Z,75.21
2023-02-03T18:30:21.575Z,76.04
2023-02-03T18:32:52.554Z,75.69
2023-02-03T18:35:19.185Z,76.28
2023-02-03T18:37:45.865Z,76.51
2023-02-03T18:40:12.728Z,76.94
2023-02-03T18:42:39.353Z,76.83
2023-02-03T18:45:06.510Z,77.17
2023-02-03T18:47:33.632Z,77.18
2023-02-03T18:50:00.209Z,77.89
2023-02-03T18:52:27.442Z,79.67
2023-02-03T18:54:54.011Z,79.77
2023-02-03T18:57:22.549Z,78.70
2023-02-03T18:59:49.677Z,79.01
2023-02-03T19:02:16.402Z,78.10
2023-02-03T19:04:43.517Z,77.57
2023-02-03T19:07:12.313Z,77.66
2023-02-03T19:09:40.000Z,79.50
2023-02-03T19:12:07.584Z,79.15
2023-02-03T19:14:35.200Z,79.07
2023-02-03T19:17:02.781Z,80.32
2023-02-03T19:19:29.369Z,81.89
2023-02-03T19:22:05.106Z,81.17
2023-02-03T19:24:31.730Z,81.50
2023-02-03T19:27:01.239Z,81.95
2023-02-03T19:29:27.821Z,84.00
2023-02-03T19:31:54.490Z,83.71
2023-02-03T19:34:28.883Z,83.00
2023-02-03T19:37:15.572Z,83.36
2023-02-03T19:59:53.109Z,80.69
2023-02-03T21:12:50.193Z,79.93
2023-02-03T21:15:32.137Z,78.98
2023-02-03T22:47:06.447Z,73.11
